Time;durP1;ratioP1;P1;durP2;ratioP2;P2;SDS_P1;SDS_P2;PMS_P1;PMS_P2;Temp;Humidity;BMP_temperature;BMP_pressure;BME280_temperature;BME280_humidity;BME280_pressure;Samples;Min_cycle;Max_cycle;Signal;HPM_P1;HPM_P2
2021/08/03 00:00:01;;;;;;;5.7;3.1;;;;;;;;;;;;;
2021/08/03 00:02:26;;;;;;;5.6;2.7;;;;;;;;;;;;;
2021/08/03 00:04:54;;;;;;;4.7;3.1;;;;;;;;;;;;;
2021/08/03 00:07:18;;;;;;;4.3;2.7;;;;;;;;;;;;;
2021/08/03 00:09:43;;;;;;;4;2.5;;;;;;;;;;;;;
2021/08/03 00:12:10;;;;;;;3.9;2.4;;;;;;;;;;;;;
2021/08/03 00:14:35;;;;;;;5.2;2.8;;;;;;;;;;;;;
2021/08/03 00:17:00;;;;;;;3.1;2.5;;;;;;;;;;;;;
2021/08/03 00:19:26;;;;;;;3.5;2.7;;;;;;;;;;;;;
2021/08/03 00:21:52;;;;;;;3.5;2.4;;;;;;;;;;;;;
2021/08/03 00:24:17;;;;;;;3.4;2.6;;;;;;;;;;;;;
2021/08/03 00:26:43;;;;;;;3.1;2.8;;;;;;;;;;;;;
2021/08/03 00:29:08;;;;;;;3.5;2.6;;;;;;;;;;;;;
2021/08/03 00:31:33;;;;;;;3;2.7;;;;;;;;;;;;;
2021/08/03 00:33:58;;;;;;;3.5;3;;;;;;;;;;;;;
2021/08/03 00:36:25;;;;;;;3.4;2.9;;;;;;;;;;;;;
2021/08/03 00:38:50;;;;;;;3.6;2.9;;;;;;;;;;;;;
2021/08/03 00:41:16;;;;;;;3.9;2.8;;;;;;;;;;;;;
2021/08/03 00:43:41;;;;;;;4.5;3;;;;;;;;;;;;;
2021/08/03 00:46:07;;;;;;;3.5;2.7;;;;;;;;;;;;;
2021/08/03 00:48:32;;;;;;;3.4;3.1;;;;;;;;;;;;;
2021/08/03 00:50:57;;;;;;;3.8;3.1;;;;;;;;;;;;;
2021/08/03 00:53:23;;;;;;;4.2;3;;;;;;;;;;;;;
2021/08/03 00:55:49;;;;;;;2.9;2.6;;;;;;;;;;;;;
2021/08/03 00:58:14;;;;;;;3.2;2.7;;;;;;;;;;;;;
2021/08/03 01:00:40;;;;;;;3.3;2.7;;;;;;;;;;;;;
2021/08/03 01:03:05;;;;;;;3.8;2.8;;;;;;;;;;;;;
2021/08/03 01:05:31;;;;;;;3;2.7;;;;;;;;;;;;;
2021/08/03 01:07:56;;;;;;;5.2;2.6;;;;;;;;;;;;;
2021/08/03 01:10:22;;;;;;;3;2.7;;;;;;;;;;;;;
2021/08/03 01:12:46;;;;;;;3.4;2.5;;;;;;;;;;;;;
2021/08/03 01:15:11;;;;;;;4.1;2.8;;;;;;;;;;;;;
2021/08/03 01:17:37;;;;;;;5.9;2.6;;;;;;;;;;;;;
2021/08/03 01:20:02;;;;;;;4.4;3;;;;;;;;;;;;;
2021/08/03 01:22:29;;;;;;;3.2;2.8;;;;;;;;;;;;;
2021/08/03 01:24:54;;;;;;;4.7;2.8;;;;;;;;;;;;;
2021/08/03 01:27:19;;;;;;;3.7;3;;;;;;;;;;;;;
2021/08/03 01:29:45;;;;;;;3.3;2.7;;;;;;;;;;;;;
2021/08/03 01:32:11;;;;;;;3.8;3.1;;;;;;;;;;;;;
2021/08/03 01:34:36;;;;;;;4;2.6;;;;;;;;;;;;;
2021/08/03 01:37:02;;;;;;;2.8;2.5;;;;;;;;;;;;;
2021/08/03 01:39:28;;;;;;;3.9;2.6;;;;;;;;;;;;;
2021/08/03 01:41:53;;;;;;;4;2.8;;;;;;;;;;;;;
2021/08/03 01:44:18;;;;;;;3.6;2.7;;;;;;;;;;;;;
2021/08/03 01:46:45;;;;;;;3.8;2.9;;;;;;;;;;;;;
2021/08/03 01:49:09;;;;;;;3.8;2.8;;;;;;;;;;;;;
2021/08/03 01:51:35;;;;;;;4.7;3.3;;;;;;;;;;;;;
2021/08/03 01:54:00;;;;;;;3.8;3.1;;;;;;;;;;;;;
2021/08/03 01:56:28;;;;;;;5.6;2.9;;;;;;;;;;;;;
2021/08/03 01:58:52;;;;;;;3.7;2.9;;;;;;;;;;;;;
2021/08/03 02:01:19;;;;;;;3;2.7;;;;;;;;;;;;;
2021/08/03 02:03:44;;;;;;;3.2;2.9;;;;;;;;;;;;;
2021/08/03 02:06:09;;;;;;;4.3;2.9;;;;;;;;;;;;;
2021/08/03 02:08:35;;;;;;;5.3;2.8;;;;;;;;;;;;;
2021/08/03 02:11:00;;;;;;;4.1;3;;;;;;;;;;;;;
2021/08/03 02:13:25;;;;;;;3.1;2.8;;;;;;;;;;;;;
2021/08/03 02:15:53;;;;;;;3.7;2.6;;;;;;;;;;;;;
2021/08/03 02:18:17;;;;;;;2.9;2.6;;;;;;;;;;;;;
2021/08/03 02:20:43;;;;;;;3.6;2.9;;;;;;;;;;;;;
2021/08/03 02:23:08;;;;;;;4.6;3.2;;;;;;;;;;;;;
2021/08/03 02:25:34;;;;;;;5.6;3;;;;;;;;;;;;;
2021/08/03 02:27:59;;;;;;;3.9;2.9;;;;;;;;;;;;;
2021/08/03 02:30:24;;;;;;;4;3.1;;;;;;;;;;;;;
2021/08/03 02:32:49;;;;;;;5.1;3.1;;;;;;;;;;;;;
2021/08/03 02:35:14;;;;;;;3.2;2.6;;;;;;;;;;;;;
2021/08/03 02:37:41;;;;;;;3.2;2.8;;;;;;;;;;;;;
2021/08/03 02:40:06;;;;;;;3.5;2.6;;;;;;;;;;;;;
2021/08/03 02:42:32;;;;;;;4.1;3;;;;;;;;;;;;;
2021/08/03 02:44:57;;;;;;;4.8;2.6;;;;;;;;;;;;;
2021/08/03 02:47:27;;;;;;;3.5;2.5;;;;;;;;;;;;;
2021/08/03 02:49:50;;;;;;;3.1;2.4;;;;;;;;;;;;;
2021/08/03 02:52:15;;;;;;;2.7;2.5;;;;;;;;;;;;;
2021/08/03 02:54:40;;;;;;;4.7;2.7;;;;;;;;;;;;;
2021/08/03 02:57:07;;;;;;;2.9;2.6;;;;;;;;;;;;;
2021/08/03 02:59:32;;;;;;;2.6;2.4;;;;;;;;;;;;;
2021/08/03 03:01:59;;;;;;;4.6;2.7;;;;;;;;;;;;;
2021/08/03 03:04:24;;;;;;;2.3;2.1;;;;;;;;;;;;;
2021/08/03 03:06:49;;;;;;;4.5;2.6;;;;;;;;;;;;;
2021/08/03 03:09:14;;;;;;;4.8;2.9;;;;;;;;;;;;;
2021/08/03 03:11:40;;;;;;;3.8;2.9;;;;;;;;;;;;;
2021/08/03 03:14:05;;;;;;;3;2.5;;;;;;;;;;;;;
2021/08/03 03:16:32;;;;;;;4.1;2.6;;;;;;;;;;;;;
2021/08/03 03:18:57;;;;;;;5.5;2.8;;;;;;;;;;;;;
2021/08/03 03:21:24;;;;;;;5.7;3.1;;;;;;;;;;;;;
2021/08/03 03:23:49;;;;;;;4.5;2.3;;;;;;;;;;;;;
2021/08/03 03:26:15;;;;;;;3.2;2.9;;;;;;;;;;;;;
2021/08/03 03:28:40;;;;;;;4;2.7;;;;;;;;;;;;;
2021/08/03 03:31:07;;;;;;;4.1;2.7;;;;;;;;;;;;;
2021/08/03 03:33:32;;;;;;;6.3;3;;;;;;;;;;;;;
2021/08/03 03:35:59;;;;;;;4;3;;;;;;;;;;;;;
2021/08/03 03:38:24;;;;;;;3.8;2.9;;;;;;;;;;;;;
2021/08/03 03:40:51;;;;;;;5.4;2.9;;;;;;;;;;;;;
2021/08/03 03:43:16;;;;;;;8.4;3.1;;;;;;;;;;;;;
2021/08/03 03:45:43;;;;;;;3.2;2.9;;;;;;;;;;;;;
2021/08/03 03:48:08;;;;;;;7.2;3.2;;;;;;;;;;;;;
2021/08/03 03:50:33;;;;;;;3.5;2.8;;;;;;;;;;;;;
2021/08/03 03:52:59;;;;;;;6.4;3;;;;;;;;;;;;;
2021/08/03 03:55:25;;;;;;;5.8;3;;;;;;;;;;;;;
2021/08/03 03:57:50;;;;;;;10.6;3.1;;;;;;;;;;;;;
2021/08/03 04:02:35;;;;;;;5.3;3.1;;;;;;;14.55;90.10352;937.9679;;;;
2021/08/03 04:05:01;;;;;;;4.2;3.2;;;;;;;14.57;89.95703;937.9422;;;;
2021/08/03 04:07:25;;;;;;;3.6;3.1;;;;;;;14.58;89.88965;937.9597;;;;
2021/08/03 04:09:50;;;;;;;4.5;2.8;;;;;;;14.45;89.87598;937.894;;;;
2021/08/03 04:12:15;;;;;;;5;3.2;;;;;;;14.32;90.29883;937.8629;;;;
2021/08/03 04:14:41;;;;;;;3.7;2.8;;;;;;;14.15;91.01172;937.9172;;;;
2021/08/03 04:17:09;;;;;;;3.7;2.8;;;;;;;14.11;91.10352;937.8486;;;;
2021/08/03 04:19:40;;;;;;;4.6;3.2;;;;;;;14.09;91.26172;937.831;;;;
2021/08/03 04:22:09;;;;;;;5;2.6;;;;;;;14.06;91.79883;937.7983;;;;
2021/08/03 04:24:40;;;;;;;3.7;2.9;;;;;;;14.06;91.48633;937.7903;;;;
2021/08/03 04:27:05;;;;;;;6.9;3.3;;;;;;;14.11;91.01367;937.8117;;;;
2021/08/03 04:29:32;;;;;;;3.4;2.7;;;;;;;13.98;91.25;937.7488;;;;
2021/08/03 04:31:59;;;;;;;3;2.5;;;;;;;13.92;91.49219;937.6522;;;;
2021/08/03 04:34:24;;;;;;;4.4;2.7;;;;;;;13.89;91.75098;937.73;;;;
2021/08/03 04:36:53;;;;;;;5.6;2.9;;;;;;;13.92;91.84863;937.6986;;;;
2021/08/03 04:39:21;;;;;;;5.7;2.8;;;;;;;13.94;91.79492;937.6729;;;;
2021/08/03 04:41:46;;;;;;;4.6;3.1;;;;;;;13.97;91.43457;937.7272;;;;
2021/08/03 04:44:12;;;;;;;3.6;2.6;;;;;;;14.12;91.83496;937.6442;;;;
2021/08/03 04:46:37;;;;;;;3.7;2.7;;;;;;;14.3;90.65039;937.6027;;;;
2021/08/03 04:49:05;;;;;;;3.7;2.7;;;;;;;14.38;89.65332;937.5204;;;;
2021/08/03 04:51:31;;;;;;;8.7;3.1;;;;;;;14.49;88.89063;937.5725;;;;
2021/08/03 04:54:00;;;;;;;3.5;2.9;;;;;;;14.52;88.18555;937.4553;;;;
2021/08/03 04:56:25;;;;;;;2.9;2.6;;;;;;;14.54;88.54395;937.5145;;;;
2021/08/03 04:58:52;;;;;;;7.6;2.8;;;;;;;14.54;88.30176;937.4135;;;;
2021/08/03 05:01:17;;;;;;;5.4;2.6;;;;;;;14.37;88.79883;937.4533;;;;
2021/08/03 05:03:46;;;;;;;10.8;9.4;;;;;;;14.2;89.54688;937.4684;;;;
2021/08/03 05:06:15;;;;;;;6.4;4.1;;;;;;;14.11;90.20605;937.485;;;;
2021/08/03 05:08:40;;;;;;;5.1;3.1;;;;;;;14.04;90.32129;937.4069;;;;
2021/08/03 05:11:07;;;;;;;4.9;2.8;;;;;;;13.92;90.44434;937.4032;;;;
2021/08/03 05:13:32;;;;;;;4.7;3.3;;;;;;;13.92;90.85938;937.4465;;;;
2021/08/03 05:16:02;;;;;;;5.7;3.2;;;;;;;14.09;90.56055;937.3898;;;;
2021/08/03 05:18:32;;;;;;;8.6;3.1;;;;;;;14.31;89.76563;937.4169;;;;
2021/08/03 05:20:57;;;;;;;10.2;3.9;;;;;;;14.55;89.38672;937.3173;;;;
2021/08/03 05:23:24;;;;;;;12.9;3.7;;;;;;;14.74;88.39063;937.2271;;;;
2021/08/03 05:25:50;;;;;;;12.4;3.7;;;;;;;15.01;86.41504;937.1809;;;;
2021/08/03 05:28:18;;;;;;;10.7;3.2;;;;;;;15.18;85.22559;937.2228;;;;
2021/08/03 05:30:49;;;;;;;7.5;2.6;;;;;;;15.26;84.58203;937.2777;;;;
2021/08/03 05:33:19;;;;;;;5.6;2.5;;;;;;;15.11;84.57715;937.2733;;;;
2021/08/03 05:35:44;;;;;;;6.3;2.5;;;;;;;15.17;84.57715;937.2414;;;;
2021/08/03 05:38:12;;;;;;;3.2;2.3;;;;;;;15.1;84.875;937.1987;;;;
2021/08/03 05:40:37;;;;;;;6.4;2.4;;;;;;;15.21;84.67676;937.1616;;;;
2021/08/03 05:43:03;;;;;;;3.8;2.4;;;;;;;15.22;84.58594;937.1699;;;;
2021/08/03 05:45:30;;;;;;;4.6;2.4;;;;;;;15.08;84.80273;937.1822;;;;
2021/08/03 05:47:55;;;;;;;6.1;2.7;;;;;;;;;;;;;
2021/08/03 05:50:21;;;;;;;3.8;2.4;;;;;;;;;;;;;
2021/08/03 05:52:46;;;;;;;2.3;2.1;;;;;;;;;;;;;
2021/08/03 05:55:11;;;;;;;9;2.6;;;;;;;;;;;;;
2021/08/03 05:57:36;;;;;;;3.8;2.1;;;;;;;;;;;;;
2021/08/03 06:00:01;;;;;;;4.3;2;;;;;;;;;;;;;
2021/08/03 06:02:26;;;;;;;4.6;1.9;;;;;;;;;;;;;
2021/08/03 06:04:54;;;;;;;4.8;2;;;;;;;;;;;;;
2021/08/03 06:07:18;;;;;;;4.2;1.7;;;;;;;;;;;;;
2021/08/03 06:09:43;;;;;;;4.3;1.5;;;;;;;;;;;;;
2021/08/03 06:12:08;;;;;;;3.6;1.7;;;;;;;;;;;;;
2021/08/03 06:14:33;;;;;;;2.8;1.7;;;;;;;;;;;;;
2021/08/03 06:16:59;;;;;;;3.6;1.8;;;;;;;;;;;;;
2021/08/03 06:19:24;;;;;;;5.3;1.9;;;;;;;;;;;;;
2021/08/03 06:21:49;;;;;;;2.7;1.5;;;;;;;;;;;;;
2021/08/03 06:24:14;;;;;;;2.2;1.4;;;;;;;;;;;;;
2021/08/03 06:26:43;;;;;;;1.3;1.2;;;;;;;;;;;;;
2021/08/03 06:29:05;;;;;;;3.7;1.5;;;;;;;;;;;;;
2021/08/03 06:31:32;;;;;;;2.2;1.4;;;;;;;;;;;;;
2021/08/03 06:33:57;;;;;;;2.5;1.3;;;;;;;;;;;;;
2021/08/03 06:36:23;;;;;;;3.8;1.5;;;;;;;;;;;;;
2021/08/03 06:38:48;;;;;;;1.5;1.4;;;;;;;;;;;;;
2021/08/03 06:41:14;;;;;;;1.7;1.3;;;;;;;;;;;;;
2021/08/03 06:43:39;;;;;;;2.1;1.6;;;;;;;;;;;;;
2021/08/03 06:46:04;;;;;;;3.9;1.7;;;;;;;;;;;;;
2021/08/03 06:48:29;;;;;;;3;1.5;;;;;;;;;;;;;
2021/08/03 06:50:55;;;;;;;1.5;1.4;;;;;;;;;;;;;
2021/08/03 06:53:20;;;;;;;3.4;1.4;;;;;;;;;;;;;
2021/08/03 06:55:45;;;;;;;2;1.3;;;;;;;;;;;;;
2021/08/03 06:58:10;;;;;;;1.3;1.2;;;;;;;;;;;;;
2021/08/03 07:00:35;;;;;;;3.1;1.3;;;;;;;;;;;;;
2021/08/03 07:03:00;;;;;;;3.1;1.4;;;;;;;;;;;;;
2021/08/03 07:05:25;;;;;;;1.3;1.2;;;;;;;;;;;;;
2021/08/03 07:07:50;;;;;;;1.4;1.2;;;;;;;;;;;;;
2021/08/03 07:10:15;;;;;;;1;1;;;;;;;;;;;;;
2021/08/03 07:12:43;;;;;;;1.5;1.4;;;;;;;;;;;;;
2021/08/03 07:15:07;;;;;;;1.4;1;;;;;;;;;;;;;
2021/08/03 07:17:35;;;;;;;3.9;1.1;;;;;;;;;;;;;
2021/08/03 07:20:00;;;;;;;3.1;1.5;;;;;;;;;;;;;
2021/08/03 07:22:26;;;;;;;2.6;1.1;;;;;;;;;;;;;
2021/08/03 07:24:51;;;;;;;1.4;1.3;;;;;;;;;;;;;
2021/08/03 07:27:17;;;;;;;1.1;1.1;;;;;;;;;;;;;
2021/08/03 07:29:41;;;;;;;2.4;1.2;;;;;;;;;;;;;
2021/08/03 07:32:06;;;;;;;1.6;1.1;;;;;;;;;;;;;
2021/08/03 07:34:31;;;;;;;1.5;1.4;;;;;;;;;;;;;
2021/08/03 07:36:59;;;;;;;2.4;1.3;;;;;;;;;;;;;
2021/08/03 07:39:24;;;;;;;1.5;1.3;;;;;;;;;;;;;
2021/08/03 07:41:50;;;;;;;1.3;1.2;;;;;;;;;;;;;
2021/08/03 07:44:15;;;;;;;2;1.5;;;;;;;;;;;;;
2021/08/03 07:46:40;;;;;;;8.7;2.2;;;;;;;;;;;;;
2021/08/03 07:49:05;;;;;;;1.2;1.1;;;;;;;;;;;;;
2021/08/03 07:51:31;;;;;;;1.5;1.2;;;;;;;;;;;;;
2021/08/03 07:53:56;;;;;;;1.2;1.1;;;;;;;;;;;;;
2021/08/03 07:56:22;;;;;;;2.4;1.5;;;;;;;;;;;;;
2021/08/03 07:58:47;;;;;;;2.4;1.5;;;;;;;;;;;;;
2021/08/03 08:01:14;;;;;;;3.8;1.5;;;;;;;;;;;;;
2021/08/03 08:03:39;;;;;;;1.6;1.2;;;;;;;;;;;;;
2021/08/03 08:06:05;;;;;;;2;1.4;;;;;;;;;;;;;
2021/08/03 08:08:30;;;;;;;2.2;1.4;;;;;;;;;;;;;
2021/08/03 08:10:56;;;;;;;1.7;1.3;;;;;;;;;;;;;
2021/08/03 08:13:21;;;;;;;1.3;1.1;;;;;;;;;;;;;
2021/08/03 08:15:50;;;;;;;2.4;1;;;;;;;;;;;;;
2021/08/03 08:18:18;;;;;;;1.6;1.5;;;;;;;;;;;;;
2021/08/03 08:20:44;;;;;;;1.3;1.2;;;;;;;;;;;;;
2021/08/03 08:23:09;;;;;;;2.9;1.5;;;;;;;;;;;;;
2021/08/03 08:25:34;;;;;;;1.4;1.1;;;;;;;;;;;;;
2021/08/03 08:27:59;;;;;;;1.3;1.2;;;;;;;;;;;;;
2021/08/03 08:30:24;;;;;;;1;1;;;;;;;;;;;;;
2021/08/03 08:32:51;;;;;;;1.6;1.2;;;;;;;;;;;;;
2021/08/03 08:35:16;;;;;;;1.8;1.2;;;;;;;;;;;;;
2021/08/03 08:37:42;;;;;;;1.6;1;;;;;;;;;;;;;
2021/08/03 08:40:07;;;;;;;1.3;1.1;;;;;;;;;;;;;
2021/08/03 08:42:33;;;;;;;1.9;1.1;;;;;;;;;;;;;
2021/08/03 08:44:58;;;;;;;1.1;1;;;;;;;;;;;;;
2021/08/03 08:47:29;;;;;;;2.5;1.2;;;;;;;;;;;;;
2021/08/03 08:50:01;;;;;;;1.2;1;;;;;;;;;;;;;
2021/08/03 08:52:19;;;;;;;1.3;1.1;;;;;;;;;;;;;
2021/08/03 08:54:45;;;;;;;1.1;1;;;;;;;;;;;;;
2021/08/03 08:57:10;;;;;;;1.9;1.2;;;;;;;;;;;;;
2021/08/03 08:59:35;;;;;;;1.3;1.2;;;;;;;;;;;;;
2021/08/03 09:02:02;;;;;;;1.1;1;;;;;;;;;;;;;
2021/08/03 09:04:27;;;;;;;1.1;1;;;;;;;;;;;;;
2021/08/03 09:06:52;;;;;;;1.1;1;;;;;;;;;;;;;
2021/08/03 09:09:20;;;;;;;1.8;1.3;;;;;;;;;;;;;
2021/08/03 09:11:46;;;;;;;0.9;0.9;;;;;;;;;;;;;
2021/08/03 09:14:11;;;;;;;1;0.9;;;;;;;;;;;;;
2021/08/03 09:16:36;;;;;;;1.2;1.1;;;;;;;;;;;;;
2021/08/03 09:19:01;;;;;;;1.1;1;;;;;;;;;;;;;
2021/08/03 09:21:26;;;;;;;1.8;1;;;;;;;;;;;;;
2021/08/03 09:23:52;;;;;;;1.3;1.1;;;;;;;;;;;;;
2021/08/03 09:26:16;;;;;;;2;1.1;;;;;;;;;;;;;
2021/08/03 09:28:42;;;;;;;1;1;;;;;;;;;;;;;
2021/08/03 09:31:07;;;;;;;1.7;1;;;;;;;;;;;;;
2021/08/03 09:33:35;;;;;;;2.6;1;;;;;;;;;;;;;
2021/08/03 09:35:59;;;;;;;1.2;1;;;;;;;;;;;;;
2021/08/03 09:38:25;;;;;;;1.1;1;;;;;;;;;;;;;
2021/08/03 09:40:52;;;;;;;1.9;1.3;;;;;;;;;;;;;
2021/08/03 09:43:15;;;;;;;1.8;1.3;;;;;;;;;;;;;
2021/08/03 09:45:41;;;;;;;1.3;1.2;;;;;;;;;;;;;
2021/08/03 09:48:06;;;;;;;1.4;1.3;;;;;;;;;;;;;
2021/08/03 09:50:33;;;;;;;1.1;1;;;;;;;;;;;;;
2021/08/03 09:52:58;;;;;;;1.1;1;;;;;;;;;;;;;
2021/08/03 09:55:23;;;;;;;1.9;1.4;;;;;;;;;;;;;
2021/08/03 09:57:49;;;;;;;1.3;1.2;;;;;;;;;;;;;
2021/08/03 10:00:15;;;;;;;1.6;1.5;;;;;;;;;;;;;
2021/08/03 10:02:40;;;;;;;1.4;1.3;;;;;;;;;;;;;
2021/08/03 10:05:05;;;;;;;2.6;1.3;;;;;;;;;;;;;
2021/08/03 10:07:30;;;;;;;1.7;1.6;;;;;;;;;;;;;
2021/08/03 10:09:55;;;;;;;1.8;1.4;;;;;;;;;;;;;
2021/08/03 10:12:21;;;;;;;1.5;1.4;;;;;;;;;;;;;
2021/08/03 10:14:46;;;;;;;2.6;1.5;;;;;;;;;;;;;
2021/08/03 10:17:14;;;;;;;1.4;1.3;;;;;;;;;;;;;
2021/08/03 10:19:39;;;;;;;1.6;1.4;;;;;;;;;;;;;
2021/08/03 10:22:04;;;;;;;1.8;1.5;;;;;;;;;;;;;
2021/08/03 10:24:30;;;;;;;2.6;1.7;;;;;;;;;;;;;
2021/08/03 10:26:55;;;;;;;1.8;1.7;;;;;;;;;;;;;
2021/08/03 10:29:20;;;;;;;1.6;1.5;;;;;;;;;;;;;
2021/08/03 10:31:45;;;;;;;1.6;1.5;;;;;;;;;;;;;
2021/08/03 10:34:11;;;;;;;1.7;1.6;;;;;;;;;;;;;
2021/08/03 10:36:39;;;;;;;2.1;1.4;;;;;;;;;;;;;
2021/08/03 10:39:03;;;;;;;1.6;1.5;;;;;;;;;;;;;
2021/08/03 10:41:28;;;;;;;1.5;1.4;;;;;;;;;;;;;
2021/08/03 10:43:55;;;;;;;2.6;1.7;;;;;;;;;;;;;
2021/08/03 10:46:22;;;;;;;1.6;1.4;;;;;;;;;;;;;
2021/08/03 10:48:47;;;;;;;3.3;1.3;;;;;;;;;;;;;
2021/08/03 10:51:11;;;;;;;2;1.5;;;;;;;;;;;;;
2021/08/03 10:53:36;;;;;;;2.2;1.7;;;;;;;;;;;;;
2021/08/03 10:56:05;;;;;;;2;1.6;;;;;;;;;;;;;
2021/08/03 10:58:32;;;;;;;1.7;1.6;;;;;;;;;;;;;
2021/08/03 11:00:57;;;;;;;1.5;1.4;;;;;;;;;;;;;
2021/08/03 11:03:22;;;;;;;2.5;1.6;;;;;;;;;;;;;
2021/08/03 11:05:48;;;;;;;1.6;1.4;;;;;;;;;;;;;
2021/08/03 11:08:13;;;;;;;1.7;1.5;;;;;;;;;;;;;
2021/08/03 11:10:38;;;;;;;1.5;1.4;;;;;;;;;;;;;
2021/08/03 11:13:09;;;;;;;1.7;1.6;;;;;;;;;;;;;
2021/08/03 11:15:35;;;;;;;1.6;1.5;;;;;;;;;;;;;
2021/08/03 11:18:01;;;;;;;2.3;1.8;;;;;;;;;;;;;
2021/08/03 11:20:25;;;;;;;2.7;1.7;;;;;;;;;;;;;
2021/08/03 11:22:52;;;;;;;2.1;1.5;;;;;;;;;;;;;
2021/08/03 11:25:17;;;;;;;3.1;1.8;;;;;;;;;;;;;
2021/08/03 11:27:42;;;;;;;2.1;1.7;;;;;;;;;;;;;
2021/08/03 11:30:07;;;;;;;2.8;1.7;;;;;;;;;;;;;
2021/08/03 11:32:34;;;;;;;2.6;1.8;;;;;;;;;;;;;
2021/08/03 11:34:58;;;;;;;1.6;1.5;;;;;;;;;;;;;
2021/08/03 11:37:25;;;;;;;2;1.7;;;;;;;;;;;;;
2021/08/03 11:39:50;;;;;;;2.4;1.7;;;;;;;;;;;;;
2021/08/03 11:42:15;;;;;;;1.7;1.6;;;;;;;;;;;;;
2021/08/03 11:44:41;;;;;;;2.8;1.8;;;;;;;;;;;;;
2021/08/03 11:47:07;;;;;;;2;1.6;;;;;;;;;;;;;
2021/08/03 11:49:32;;;;;;;2.3;1.7;;;;;;;;;;;;;
2021/08/03 11:51:58;;;;;;;2;1.6;;;;;;;;;;;;;
2021/08/03 11:54:23;;;;;;;2.3;1.7;;;;;;;;;;;;;
2021/08/03 11:56:48;;;;;;;1.9;1.7;;;;;;;;;;;;;
2021/08/03 11:59:14;;;;;;;2.3;1.5;;;;;;;;;;;;;
2021/08/03 12:01:41;;;;;;;2.3;1.6;;;;;;;;;;;;;
2021/08/03 12:04:06;;;;;;;1.5;1.4;;;;;;;;;;;;;
2021/08/03 12:06:31;;;;;;;1.6;1.5;;;;;;;;;;;;;
2021/08/03 12:08:56;;;;;;;2.1;1.7;;;;;;;;;;;;;
2021/08/03 12:11:21;;;;;;;1.7;1.6;;;;;;;;;;;;;
2021/08/03 12:13:46;;;;;;;2.1;1.6;;;;;;;;;;;;;
2021/08/03 12:16:12;;;;;;;2.5;1.6;;;;;;;;;;;;;
2021/08/03 12:18:38;;;;;;;3.3;2;;;;;;;;;;;;;
2021/08/03 12:23:30;;;;;;;2.3;1.7;;;;;;;;;;;;;
2021/08/03 12:25:55;;;;;;;3.4;1.9;;;;;;;;;;;;;
2021/08/03 12:28:20;;;;;;;1.7;1.6;;;;;;;;;;;;;
2021/08/03 12:30:45;;;;;;;1.7;1.6;;;;;;;;;;;;;
2021/08/03 12:33:12;;;;;;;1.6;1.5;;;;;;;;;;;;;
2021/08/03 12:35:42;;;;;;;2.2;2;;;;;;;;;;;;;
2021/08/03 12:38:09;;;;;;;2.1;1.8;;;;;;;;;;;;;
2021/08/03 12:40:34;;;;;;;2.5;1.6;;;;;;;;;;;;;
2021/08/03 12:43:03;;;;;;;2.1;1.9;;;;;;;;;;;;;
2021/08/03 12:45:26;;;;;;;2.4;1.7;;;;;;;;;;;;;
2021/08/03 12:47:52;;;;;;;2.1;1.9;;;;;;;;;;;;;
2021/08/03 12:50:21;;;;;;;2.2;1.8;;;;;;;;;;;;;
2021/08/03 12:52:46;;;;;;;2;1.8;;;;;;;;;;;;;
2021/08/03 12:55:14;;;;;;;2.3;2;;;;;;;;;;;;;
2021/08/03 12:57:38;;;;;;;2.6;1.9;;;;;;;;;;;;;
2021/08/03 13:00:03;;;;;;;2.3;2.1;;;;;;;;;;;;;
2021/08/03 13:02:29;;;;;;;4.1;2.3;;;;;;;;;;;;;
2021/08/03 13:04:54;;;;;;;2.5;2.1;;;;;;;;;;;;;
2021/08/03 13:07:19;;;;;;;4.8;2.1;;;;;;;;;;;;;
2021/08/03 13:09:44;;;;;;;2.4;2;;;;;;;;;;;;;
2021/08/03 13:12:11;;;;;;;2.8;2.2;;;;;;;;;;;;;
2021/08/03 13:14:34;;;;;;;3.2;2.4;;;;;;;;;;;;;
2021/08/03 13:17:03;;;;;;;3.9;2.3;;;;;;;;;;;;;
2021/08/03 13:19:27;;;;;;;3.5;2.4;;;;;;;;;;;;;
2021/08/03 13:21:52;;;;;;;2.9;2.3;;;;;;;;;;;;;
2021/08/03 13:24:17;;;;;;;2.3;2.1;;;;;;;;;;;;;
2021/08/03 13:26:42;;;;;;;3;2.5;;;;;;;;;;;;;
2021/08/03 13:29:07;;;;;;;3.3;2.5;;;;;;;;;;;;;
2021/08/03 13:31:34;;;;;;;3.3;2.2;;;;;;;;;;;;;
2021/08/03 13:33:59;;;;;;;5.4;2.4;;;;;;;;;;;;;
2021/08/03 13:36:24;;;;;;;4.1;2.7;;;;;;;;;;;;;
2021/08/03 13:38:50;;;;;;;4.1;3.1;;;;;;;;;;;;;
2021/08/03 13:41:16;;;;;;;5.7;2.9;;;;;;;;;;;;;
2021/08/03 13:43:41;;;;;;;6.2;3.2;;;;;;;;;;;;;
2021/08/03 13:46:07;;;;;;;6.5;3.6;;;;;;;;;;;;;
2021/08/03 13:48:52;;;;;;;4.9;3.1;;;;;;;;;;;;;
2021/08/03 13:51:05;;;;;;;3.8;3.1;;;;;;;;;;;;;
2021/08/03 13:55:46;;;;;;;6.9;4;;;;;;;;;;;;;
2021/08/03 13:56:48;;;;;;;4.2;3.1;;;;;;;;;;;;;
2021/08/03 13:58:59;;;;;;;4;3;;;;;;;;;;;;;
2021/08/03 14:01:22;;;;;;;3.7;2.9;;;;;;;;;;;;;
2021/08/03 14:03:50;;;;;;;3.1;2.6;;;;;;;;;;;;;
2021/08/03 14:06:16;;;;;;;4.9;2.7;;;;;;;;;;;;;
2021/08/03 14:08:41;;;;;;;5;3.3;;;;;;;;;;;;;
2021/08/03 14:11:06;;;;;;;4.5;2.9;;;;;;;;;;;;;
2021/08/03 14:13:31;;;;;;;4.4;2.6;;;;;;;;;;;;;
2021/08/03 14:15:56;;;;;;;2.8;2.6;;;;;;;;;;;;;
2021/08/03 14:18:23;;;;;;;4.4;2.9;;;;;;;;;;;;;
2021/08/03 14:20:48;;;;;;;3.4;2.6;;;;;;;;;;;;;
2021/08/03 14:23:14;;;;;;;4.1;2.6;;;;;;;;;;;;;
2021/08/03 14:25:39;;;;;;;2.6;2.3;;;;;;;;;;;;;
2021/08/03 14:28:05;;;;;;;3.9;2.7;;;;;;;;;;;;;
2021/08/03 14:30:30;;;;;;;3.9;2.8;;;;;;;;;;;;;
2021/08/03 14:32:57;;;;;;;3.1;2.7;;;;;;;;;;;;;
2021/08/03 14:35:22;;;;;;;3.6;2.9;;;;;;;;;;;;;
2021/08/03 14:37:48;;;;;;;3.1;2.7;;;;;;;;;;;;;
2021/08/03 14:40:13;;;;;;;3.8;2.9;;;;;;;;;;;;;
2021/08/03 14:42:38;;;;;;;3.4;2.7;;;;;;;;;;;;;
2021/08/03 14:45:03;;;;;;;4.3;3.1;;;;;;;;;;;;;
2021/08/03 14:47:29;;;;;;;3.3;3;;;;;;;;;;;;;
2021/08/03 14:49:55;;;;;;;3.4;3;;;;;;;;;;;;;
2021/08/03 14:52:20;;;;;;;5;3.2;;;;;;;;;;;;;
2021/08/03 14:54:47;;;;;;;4.3;3.9;;;;;;;;;;;;;
2021/08/03 14:57:10;;;;;;;3.8;3.1;;;;;;;;;;;;;
2021/08/03 14:59:35;;;;;;;3.4;3.1;;;;;;;;;;;;;
2021/08/03 15:02:00;;;;;;;3.3;3;;;;;;;;;;;;;
2021/08/03 15:04:26;;;;;;;4.1;3.1;;;;;;;;;;;;;
2021/08/03 15:06:51;;;;;;;3.7;2.9;;;;;;;;;;;;;
2021/08/03 15:09:16;;;;;;;4;3.3;;;;;;;;;;;;;
2021/08/03 15:11:41;;;;;;;3.4;3.1;;;;;;;;;;;;;
2021/08/03 15:14:06;;;;;;;4.8;3.2;;;;;;;;;;;;;
2021/08/03 15:16:32;;;;;;;4.1;3.4;;;;;;;;;;;;;
2021/08/03 15:18:57;;;;;;;4.9;3.7;;;;;;;;;;;;;
2021/08/03 15:21:22;;;;;;;5.6;3.5;;;;;;;;;;;;;
2021/08/03 15:23:47;;;;;;;9.8;6.5;;;;;;;;;;;;;
2021/08/03 15:26:12;;;;;;;6.5;4.3;;;;;;;;;;;;;
2021/08/03 15:28:37;;;;;;;5.4;3.3;;;;;;;;;;;;;
2021/08/03 15:31:05;;;;;;;3.8;3.4;;;;;;;;;;;;;
2021/08/03 15:33:31;;;;;;;7.1;3.8;;;;;;;;;;;;;
2021/08/03 15:36:13;;;;;;;4.2;3.1;;;;;;;;;;;;;
2021/08/03 15:38:39;;;;;;;5.9;3.8;;;;;;;;;;;;;
2021/08/03 15:41:04;;;;;;;4.9;3.2;;;;;;;;;;;;;
2021/08/03 15:43:30;;;;;;;3.5;3.2;;;;;;;;;;;;;
2021/08/03 15:45:57;;;;;;;4.1;3.1;;;;;;;;;;;;;
2021/08/03 15:48:21;;;;;;;4.6;3.6;;;;;;;;;;;;;
2021/08/03 15:50:47;;;;;;;3.3;3;;;;;;;;;;;;;
2021/08/03 15:53:12;;;;;;;3;2.5;;;;;;;;;;;;;
2021/08/03 15:55:37;;;;;;;4.1;2.4;;;;;;;;;;;;;
2021/08/03 15:58:03;;;;;;;2.8;2.4;;;;;;;;;;;;;
2021/08/03 16:00:29;;;;;;;3.2;2.8;;;;;;;;;;;;;
2021/08/03 16:02:54;;;;;;;3.3;3;;;;;;;;;;;;;
2021/08/03 16:05:19;;;;;;;2.6;2.4;;;;;;;;;;;;;
2021/08/03 16:07:48;;;;;;;2.4;2.2;;;;;;;;;;;;;
2021/08/03 16:10:13;;;;;;;2.8;2.5;;;;;;;;;;;;;
2021/08/03 16:12:39;;;;;;;3.2;2.2;;;;;;;;;;;;;
2021/08/03 16:15:04;;;;;;;3;2.5;;;;;;;;;;;;;
2021/08/03 16:17:29;;;;;;;3.3;2.3;;;;;;;;;;;;;
2021/08/03 16:19:54;;;;;;;3;2.2;;;;;;;;;;;;;
2021/08/03 16:22:19;;;;;;;2.3;2.1;;;;;;;;;;;;;
2021/08/03 16:24:45;;;;;;;2.8;2.4;;;;;;;;;;;;;
2021/08/03 16:27:11;;;;;;;4.1;2.2;;;;;;;;;;;;;
2021/08/03 16:29:38;;;;;;;3.1;2.4;;;;;;;;;;;;;
2021/08/03 16:32:28;;;;;;;3.7;2.6;;;;;;;;;;;;;
2021/08/03 16:34:46;;;;;;;3;2.4;;;;;;;;;;;;;
2021/08/03 16:37:10;;;;;;;3;2.3;;;;;;;;;;;;;
2021/08/03 16:39:35;;;;;;;3.5;2.5;;;;;;;;;;;;;
2021/08/03 16:42:00;;;;;;;2.9;2.6;;;;;;;;;;;;;
2021/08/03 16:44:25;;;;;;;3.3;3;;;;;;;;;;;;;
2021/08/03 16:46:51;;;;;;;3.3;2.9;;;;;;;;;;;;;
2021/08/03 16:49:16;;;;;;;3.7;3;;;;;;;;;;;;;
2021/08/03 16:51:41;;;;;;;2.5;2.1;;;;;;;;;;;;;
2021/08/03 16:54:09;;;;;;;3.3;2.2;;;;;;;;;;;;;
2021/08/03 16:56:33;;;;;;;2.4;2.2;;;;;;;;;;;;;
2021/08/03 16:58:59;;;;;;;2.2;2;;;;;;;;;;;;;
2021/08/03 17:01:25;;;;;;;2.6;1.9;;;;;;;;;;;;;
2021/08/03 17:03:50;;;;;;;3.2;1.8;;;;;;;;;;;;;
2021/08/03 17:06:15;;;;;;;3.3;2.6;;;;;;;;;;;;;
2021/08/03 17:08:49;;;;;;;2;1.8;;;;;;;;;;;;;
2021/08/03 17:11:15;;;;;;;3.2;2;;;;;;;;;;;;;
2021/08/03 17:13:32;;;;;;;1.7;1.6;;;;;;;;;;;;;
2021/08/03 17:16:01;;;;;;;3.2;1.7;;;;;;;;;;;;;
2021/08/03 17:18:32;;;;;;;2.6;1.7;;;;;;;;;;;;;
2021/08/03 17:20:50;;;;;;;1.7;1.5;;;;;;;;;;;;;
2021/08/03 17:23:20;;;;;;;1.7;1.4;;;;;;;;;;;;;
2021/08/03 17:28:20;;;;;;;3;1.9;;;;;;;;;;;;;
2021/08/03 17:30:45;;;;;;;3;2.3;;;;;;;;;;;;;
2021/08/03 17:33:11;;;;;;;4.2;2.2;;;;;;;;;;;;;
2021/08/03 17:35:37;;;;;;;3;1.7;;;;;;;;;;;;;
2021/08/03 17:38:04;;;;;;;3.1;1.8;;;;;;;;;;;;;
2021/08/03 17:40:27;;;;;;;4.3;2.3;;;;;;;;;;;;;
2021/08/03 17:42:52;;;;;;;4.3;2.6;;;;;;;;;;;;;
2021/08/03 17:45:18;;;;;;;3.9;2.9;;;;;;;;;;;;;
2021/08/03 17:47:44;;;;;;;1.7;1.6;;;;;;;;;;;;;
2021/08/03 17:50:09;;;;;;;3.3;1.8;;;;;;;;;;;;;
2021/08/03 17:52:35;;;;;;;2.8;1.9;;;;;;;;;;;;;
2021/08/03 17:55:01;;;;;;;2.6;2.2;;;;;;;;;;;;;
2021/08/03 17:57:25;;;;;;;2.9;2;;;;;;;;;;;;;
2021/08/03 17:59:51;;;;;;;4.7;2.2;;;;;;;;;;;;;
2021/08/03 18:02:18;;;;;;;2.2;1.9;;;;;;;;;;;;;
2021/08/03 18:04:43;;;;;;;2.6;2.4;;;;;;;;;;;;;
2021/08/03 18:07:08;;;;;;;3.3;2.2;;;;;;;;;;;;;
2021/08/03 18:09:33;;;;;;;4.8;2;;;;;;;;;;;;;
2021/08/03 18:12:00;;;;;;;2.3;2;;;;;;;;;;;;;
2021/08/03 18:14:25;;;;;;;4.3;2.1;;;;;;;;;;;;;
2021/08/03 18:19:41;;;;;;;4.2;2.6;;;;;;;;;;;;;
2021/08/03 18:22:06;;;;;;;3.4;2.1;;;;;;;;;;;;;
2021/08/03 18:24:31;;;;;;;4.1;2.5;;;;;;;;;;;;;
2021/08/03 18:26:57;;;;;;;3.3;2.4;;;;;;;;;;;;;
2021/08/03 18:29:23;;;;;;;3.5;2.6;;;;;;;;;;;;;
2021/08/03 18:31:52;;;;;;;2.9;2.4;;;;;;;;;;;;;
2021/08/03 18:34:28;;;;;;;3.9;2.6;;;;;;;;;;;;;
2021/08/03 18:36:53;;;;;;;3.4;2.7;;;;;;;;;;;;;
2021/08/03 18:39:18;;;;;;;3.5;2.8;;;;;;;;;;;;;
2021/08/03 18:41:44;;;;;;;3.1;2.6;;;;;;;;;;;;;
2021/08/03 18:44:09;;;;;;;2.6;2.4;;;;;;;;;;;;;
2021/08/03 18:46:35;;;;;;;3;2.6;;;;;;;;;;;;;
2021/08/03 18:49:01;;;;;;;3.4;2.6;;;;;;;;;;;;;
2021/08/03 18:51:27;;;;;;;3.9;2.3;;;;;;;;;;;;;
2021/08/03 18:53:52;;;;;;;2.9;2.6;;;;;;;;;;;;;
2021/08/03 18:56:19;;;;;;;3.4;2.8;;;;;;;;;;;;;
2021/08/03 18:58:45;;;;;;;4.8;2.9;;;;;;;;;;;;;
2021/08/03 19:01:09;;;;;;;3.6;2.1;;;;;;;;;;;;;
2021/08/03 19:03:34;;;;;;;2.3;2.1;;;;;;;;;;;;;
2021/08/03 19:05:59;;;;;;;5.1;2.3;;;;;;;;;;;;;
2021/08/03 19:08:25;;;;;;;4.2;2.4;;;;;;;;;;;;;
2021/08/03 19:10:51;;;;;;;3.2;2.2;;;;;;;;;;;;;
2021/08/03 19:13:18;;;;;;;2.1;1.9;;;;;;;;;;;;;
2021/08/03 19:15:48;;;;;;;3.7;2.5;;;;;;;;;;;;;
2021/08/03 19:18:12;;;;;;;2.4;2.2;;;;;;;;;;;;;
2021/08/03 19:20:41;;;;;;;3.1;2.4;;;;;;;;;;;;;
2021/08/03 19:23:08;;;;;;;4.2;3;;;;;;;;;;;;;
2021/08/03 19:25:33;;;;;;;3.1;2.2;;;;;;;;;;;;;
2021/08/03 19:28:02;;;;;;;3.1;2.5;;;;;;;;;;;;;
2021/08/03 19:30:29;;;;;;;2.5;2.3;;;;;;;;;;;;;
2021/08/03 19:32:51;;;;;;;2.9;2.5;;;;;;;;;;;;;
2021/08/03 19:35:19;;;;;;;3.4;2.9;;;;;;;;;;;;;
2021/08/03 19:37:44;;;;;;;3.4;2.8;;;;;;;;;;;;;
2021/08/03 19:40:12;;;;;;;3.1;2.7;;;;;;;;;;;;;
2021/08/03 19:42:36;;;;;;;4;3.3;;;;;;;;;;;;;
2021/08/03 19:45:01;;;;;;;3.3;3;;;;;;;;;;;;;
2021/08/03 19:47:29;;;;;;;3.8;3.2;;;;;;;;;;;;;
2021/08/03 19:49:53;;;;;;;4.1;3;;;;;;;;;;;;;
2021/08/03 19:55:06;;;;;;;4.7;3;;;;;;;;;;;;;
2021/08/03 19:57:31;;;;;;;3.4;2.8;;;;;;;;;;;;;
2021/08/03 19:59:57;;;;;;;3.7;2.8;;;;;;;;;;;;;
2021/08/03 20:02:22;;;;;;;3.2;2.9;;;;;;;;;;;;;
2021/08/03 20:04:48;;;;;;;2.9;2.6;;;;;;;;;;;;;